createdAt,value
2018-03-04T00:01:03.015Z,208.77
2018-03-04T00:03:30.373Z,154.90
2018-03-04T00:05:57.759Z,155.47
2018-03-04T00:08:25.144Z,148.30
2018-03-04T00:10:52.536Z,136.90
2018-03-04T00:13:19.883Z,127.93
2018-03-04T00:15:47.258Z,131.03
2018-03-04T00:18:14.621Z,123.40
2018-03-04T00:20:41.998Z,132.67
2018-03-04T00:23:09.343Z,131.50
2018-03-04T00:25:36.762Z,133.67
2018-03-04T00:28:04.128Z,128.03
2018-03-04T00:30:31.505Z,129.17
2018-03-04T00:32:58.861Z,129.93
2018-03-04T00:35:26.257Z,127.50
2018-03-04T00:37:53.647Z,138.83
2018-03-04T00:40:20.994Z,127.63
2018-03-04T00:42:48.370Z,127.60
2018-03-04T00:45:15.748Z,132.30
2018-03-04T00:47:43.128Z,128.63
2018-03-04T00:50:10.494Z,128.27
2018-03-04T00:52:37.862Z,129.63
2018-03-04T00:55:05.228Z,130.73
2018-03-04T00:57:32.600Z,124.23
2018-03-04T00:59:59.998Z,131.00
2018-03-04T01:02:27.493Z,124.77
2018-03-04T01:04:54.837Z,129.17
2018-03-04T01:07:22.215Z,127.70
2018-03-04T01:09:49.577Z,126.00
2018-03-04T01:12:16.960Z,134.03
2018-03-04T01:14:44.308Z,132.77
2018-03-04T01:17:11.682Z,127.13
2018-03-04T01:19:39.030Z,137.53
2018-03-04T01:22:06.410Z,131.10
2018-03-04T01:24:33.754Z,128.63
2018-03-04T01:27:01.142Z,131.40
2018-03-04T01:29:28.482Z,129.10
2018-03-04T01:31:55.880Z,130.33
2018-03-04T01:34:23.254Z,123.80
2018-03-04T01:36:50.602Z,136.33
2018-03-04T01:39:17.974Z,139.43
2018-03-04T01:41:45.326Z,123.27
2018-03-04T01:44:12.706Z,127.03
2018-03-04T01:46:40.060Z,134.10
2018-03-04T01:49:07.438Z,128.20
2018-03-04T01:51:40.684Z,134.43
2018-03-04T01:54:08.063Z,117.10
2018-03-04T01:56:35.414Z,121.63
2018-03-04T01:59:02.809Z,115.73
2018-03-04T02:01:30.161Z,115.43
2018-03-04T02:03:57.530Z,125.30
2018-03-04T02:06:24.889Z,130.00
2018-03-04T02:08:52.293Z,128.03
2018-03-04T02:11:19.646Z,129.10
2018-03-04T02:13:47.023Z,122.50
2018-03-04T02:16:14.369Z,120.43
2018-03-04T02:18:41.752Z,119.90
2018-03-04T02:21:09.113Z,114.20
2018-03-04T02:23:36.492Z,118.87
2018-03-04T02:26:03.885Z,113.03
2018-03-04T02:28:31.244Z,119.07
2018-03-04T02:30:58.614Z,124.40
2018-03-04T02:33:25.991Z,133.23
2018-03-04T02:35:53.399Z,125.70
2018-03-04T02:38:20.753Z,120.10
2018-03-04T02:40:48.131Z,124.00
2018-03-04T02:43:15.502Z,121.77
2018-03-04T02:45:42.884Z,129.43
2018-03-04T02:48:10.298Z,122.83
2018-03-04T02:50:37.653Z,119.77
2018-03-04T02:53:05.060Z,122.00
2018-03-04T02:55:32.416Z,121.33
2018-03-04T02:57:59.849Z,130.50
2018-03-04T03:00:27.201Z,118.70
2018-03-04T03:02:54.640Z,127.00
2018-03-04T03:05:21.986Z,126.13
2018-03-04T03:07:49.361Z,124.37
2018-03-04T03:10:16.723Z,121.23
2018-03-04T03:12:44.120Z,125.37
2018-03-04T03:15:11.470Z,124.93
2018-03-04T03:17:38.858Z,118.53
2018-03-04T03:20:06.207Z,115.27
2018-03-04T03:22:33.592Z,118.63
2018-03-04T03:25:00.943Z,118.53
2018-03-04T03:27:28.309Z,129.63
2018-03-04T03:29:55.661Z,114.93
2018-03-04T03:32:23.046Z,117.83
2018-03-04T03:34:50.419Z,107.97
2018-03-04T03:37:17.764Z,112.80
2018-03-04T03:39:45.136Z,121.17
2018-03-04T03:42:12.487Z,108.23
2018-03-04T03:44:39.876Z,105.20
2018-03-04T03:47:07.329Z,97.33
2018-03-04T03:49:34.728Z,98.13
2018-03-04T03:52:02.072Z,103.07
2018-03-04T03:54:29.442Z,115.40
2018-03-04T03:56:56.786Z,120.90
2018-03-04T03:59:24.162Z,118.83
2018-03-04T04:01:51.512Z,122.40
2018-03-04T04:04:18.913Z,124.13
2018-03-04T04:06:46.268Z,121.03
2018-03-04T04:09:13.674Z,130.43
2018-03-04T04:11:41.059Z,134.57
2018-03-04T04:14:08.459Z,119.67
2018-03-04T04:16:35.822Z,118.80
2018-03-04T04:19:03.211Z,119.67
2018-03-04T04:21:30.555Z,117.07
2018-03-04T04:23:57.948Z,123.73
2018-03-04T04:26:25.302Z,113.90
2018-03-04T04:28:52.669Z,127.72
2018-03-04T04:31:20.040Z,120.70
2018-03-04T04:33:47.509Z,124.20
2018-03-04T04:36:14.883Z,111.40
2018-03-04T04:38:42.374Z,118.43
2018-03-04T04:41:09.750Z,123.20
2018-03-04T04:43:37.100Z,115.50
2018-03-04T04:46:04.479Z,120.50
2018-03-04T04:48:31.836Z,123.63
2018-03-04T04:50:59.219Z,121.27
2018-03-04T04:53:26.585Z,117.33
2018-03-04T04:55:53.955Z,120.90
2018-03-04T04:58:21.317Z,125.77
2018-03-04T05:00:48.695Z,108.90
2018-03-04T05:03:16.039Z,128.40
2018-03-04T05:05:43.410Z,116.47
2018-03-04T05:08:10.776Z,115.67
2018-03-04T05:10:38.194Z,110.60
2018-03-04T05:13:05.538Z,107.13
2018-03-04T05:15:32.906Z,90.30
2018-03-04T05:18:00.252Z,101.17
2018-03-04T05:20:27.618Z,89.53
2018-03-04T05:22:54.982Z,91.30
2018-03-04T05:25:22.353Z,94.43
2018-03-04T05:27:49.718Z,100.80
2018-03-04T05:30:17.103Z,107.40
2018-03-04T05:32:44.459Z,108.00
2018-03-04T05:35:11.802Z,99.33
2018-03-04T05:37:39.176Z,110.60
2018-03-04T05:40:06.516Z,97.00
2018-03-04T05:42:33.930Z,105.90
2018-03-04T05:45:01.319Z,107.80
2018-03-04T05:47:28.698Z,108.90
2018-03-04T05:49:56.049Z,93.13
2018-03-04T05:52:23.417Z,97.03
2018-03-04T05:54:50.781Z,101.18
2018-03-04T05:57:18.166Z,109.95
2018-03-04T05:59:45.513Z,105.10
2018-03-04T06:02:12.876Z,99.90
2018-03-04T06:04:40.227Z,93.30
2018-03-04T06:07:07.592Z,90.47
2018-03-04T06:09:34.952Z,104.65
2018-03-04T06:12:02.357Z,112.37
2018-03-04T06:14:29.718Z,98.97
2018-03-04T06:16:57.111Z,114.90
2018-03-04T06:19:24.462Z,111.63
2018-03-04T06:21:51.838Z,115.10
2018-03-04T06:24:19.190Z,109.83
2018-03-04T06:26:46.588Z,115.43
2018-03-04T06:29:13.938Z,113.17
2018-03-04T06:31:41.331Z,108.20
2018-03-04T06:34:08.678Z,106.63
2018-03-04T06:36:36.059Z,102.17
2018-03-04T06:39:03.427Z,99.30
2018-03-04T06:41:30.819Z,86.63
2018-03-04T06:43:58.174Z,86.17
2018-03-04T06:46:25.536Z,82.95
2018-03-04T06:48:52.929Z,78.62
2018-03-04T06:51:20.269Z,98.63
2018-03-04T06:53:47.656Z,84.18
2018-03-04T06:56:15.010Z,90.90
2018-03-04T06:58:42.383Z,83.70
2018-03-04T07:01:09.761Z,87.07
2018-03-04T07:03:37.127Z,92.30
2018-03-04T07:06:04.480Z,95.62
2018-03-04T07:08:31.847Z,95.23
2018-03-04T07:10:59.188Z,96.60
2018-03-04T07:13:26.559Z,94.53
2018-03-04T07:15:53.907Z,94.80
2018-03-04T07:18:21.281Z,88.03
2018-03-04T07:20:48.627Z,77.17
2018-03-04T07:23:16.005Z,79.40
2018-03-04T07:25:43.348Z,77.40
2018-03-04T07:28:10.719Z,65.23
2018-03-04T07:30:38.059Z,55.30
2018-03-04T07:33:05.448Z,65.37
2018-03-04T07:35:32.787Z,62.10
2018-03-04T07:38:00.139Z,60.33
2018-03-04T07:40:27.517Z,53.30
2018-03-04T07:42:54.862Z,52.78
2018-03-04T07:45:22.234Z,56.10
2018-03-04T07:47:49.582Z,51.17
2018-03-04T07:50:16.950Z,54.70
2018-03-04T07:52:44.307Z,48.35
2018-03-04T07:55:11.680Z,48.70
2018-03-04T07:57:39.026Z,51.43
2018-03-04T08:00:06.394Z,47.67
2018-03-04T08:02:33.736Z,41.77
2018-03-04T08:05:01.108Z,41.67
2018-03-04T08:07:28.452Z,42.37
2018-03-04T08:09:55.838Z,43.97
2018-03-04T08:12:23.175Z,45.23
2018-03-04T08:14:50.551Z,40.42
2018-03-04T08:17:17.895Z,40.40
2018-03-04T08:19:45.287Z,43.75
2018-03-04T08:22:12.645Z,35.53
2018-03-04T08:24:40.058Z,37.38
2018-03-04T08:27:13.351Z,37.23
2018-03-04T08:29:40.724Z,40.40
2018-03-04T08:32:08.073Z,33.47
2018-03-04T08:34:35.448Z,40.30
2018-03-04T08:37:02.807Z,32.83
2018-03-04T08:39:30.175Z,35.97
2018-03-04T08:41:57.539Z,36.60
2018-03-04T08:44:24.879Z,30.80
2018-03-04T08:46:52.251Z,24.67
2018-03-04T08:49:19.602Z,28.80
2018-03-04T08:51:46.985Z,31.70
2018-03-04T08:54:14.331Z,30.47
2018-03-04T08:56:41.706Z,30.80
2018-03-04T08:59:09.044Z,24.63
2018-03-04T09:01:36.424Z,25.20
2018-03-04T09:04:03.777Z,24.10
2018-03-04T09:06:31.155Z,26.27
2018-03-04T09:08:58.488Z,22.20
2018-03-04T09:11:25.853Z,21.37
2018-03-04T09:13:53.194Z,28.37
2018-03-04T09:16:20.562Z,21.23
2018-03-04T09:18:47.908Z,25.40
2018-03-04T09:21:15.278Z,24.33
2018-03-04T09:23:42.627Z,30.47
2018-03-04T09:26:10.000Z,58.80
2018-03-04T09:28:37.388Z,29.30
2018-03-04T09:31:04.734Z,26.70
2018-03-04T09:33:32.070Z,28.07
2018-03-04T09:35:59.491Z,27.00
2018-03-04T09:38:26.875Z,27.10
2018-03-04T09:40:54.222Z,29.50
2018-03-04T09:43:21.566Z,23.83
2018-03-04T09:45:48.936Z,26.40
2018-03-04T09:48:16.277Z,26.00
2018-03-04T09:50:43.653Z,21.57
2018-03-04T09:53:10.996Z,28.67
2018-03-04T09:55:38.341Z,20.37
2018-03-04T09:58:05.802Z,27.07
2018-03-04T10:00:33.150Z,18.57
2018-03-04T10:03:00.518Z,21.13
2018-03-04T10:05:28.134Z,19.17
2018-03-04T10:07:55.508Z,23.97
2018-03-04T10:10:22.843Z,24.60
2018-03-04T10:12:50.207Z,20.13
2018-03-04T10:15:17.549Z,22.20
2018-03-04T10:17:44.917Z,20.17
2018-03-04T10:20:12.257Z,26.03
2018-03-04T10:22:39.678Z,20.07
2018-03-04T10:25:07.020Z,19.70
2018-03-04T10:27:34.379Z,18.33
2018-03-04T10:30:01.743Z,16.93
2018-03-04T10:32:29.104Z,18.70
2018-03-04T10:34:56.688Z,18.13
2018-03-04T10:37:24.066Z,17.33
2018-03-04T10:39:51.418Z,21.03
2018-03-04T10:42:18.781Z,26.00
2018-03-04T10:44:46.119Z,18.03
2018-03-04T10:47:13.474Z,19.57
2018-03-04T10:49:40.810Z,15.17
2018-03-04T10:52:08.182Z,21.53
2018-03-04T10:54:35.519Z,13.60
2018-03-04T10:57:02.922Z,17.60
2018-03-04T10:59:30.254Z,16.00
2018-03-04T11:02:03.471Z,28.07
2018-03-04T11:04:30.832Z,15.83
2018-03-04T11:06:58.170Z,12.20
2018-03-04T11:09:25.533Z,11.97
2018-03-04T11:11:52.868Z,18.40
2018-03-04T11:14:20.233Z,18.23
2018-03-04T11:16:47.815Z,20.00
2018-03-04T11:19:15.218Z,18.13
2018-03-04T11:21:42.556Z,11.27
2018-03-04T11:24:09.933Z,16.63
2018-03-04T11:26:37.303Z,14.37
2018-03-04T11:29:04.673Z,13.57
2018-03-04T11:31:32.007Z,14.60
2018-03-04T11:33:59.404Z,12.60
2018-03-04T11:36:26.731Z,13.80
2018-03-04T11:38:54.107Z,19.50
2018-03-04T11:41:21.464Z,9.17
2018-03-04T11:43:48.829Z,17.50
2018-03-04T11:46:16.167Z,13.80
2018-03-04T11:48:43.530Z,9.90
2018-03-04T11:51:10.860Z,14.57
2018-03-04T11:53:38.224Z,10.03
2018-03-04T11:56:05.710Z,13.30
2018-03-04T11:58:33.203Z,7.77
2018-03-04T12:01:00.538Z,6.27
2018-03-04T12:03:27.891Z,8.90
2018-03-04T12:05:55.263Z,9.87
2018-03-04T12:08:22.615Z,9.20
2018-03-04T12:10:49.939Z,4.67
2018-03-04T12:15:59.983Z,10.37
2018-03-04T12:18:27.396Z,5.40
2018-03-04T12:20:54.719Z,9.40
2018-03-04T12:23:22.306Z,9.53
2018-03-04T12:25:50.998Z,17.87
2018-03-04T12:28:19.844Z,8.97
2018-03-04T12:30:48.610Z,6.53
2018-03-04T12:33:16.354Z,6.00
2018-03-04T12:35:44.910Z,7.57
2018-03-04T12:38:13.803Z,4.77
2018-03-04T12:40:42.706Z,6.83
2018-03-04T12:43:10.455Z,4.03
2018-03-04T12:45:37.908Z,3.70
2018-03-04T12:48:05.554Z,7.77
2018-03-04T12:50:32.978Z,10.63
2018-03-04T12:53:01.904Z,3.80
2018-03-04T12:55:30.714Z,4.27
2018-03-04T12:57:58.184Z,4.83
2018-03-04T13:00:25.708Z,2.67
2018-03-04T13:02:53.133Z,3.97
2018-03-04T13:05:20.544Z,4.60
2018-03-04T13:07:47.915Z,3.27
2018-03-04T13:10:15.293Z,3.40
2018-03-04T13:12:42.678Z,4.47
2018-03-04T13:15:10.051Z,3.77
2018-03-04T13:17:37.461Z,4.43
2018-03-04T13:20:04.931Z,2.60
2018-03-04T13:22:32.402Z,2.40
2018-03-04T13:24:59.878Z,2.70
2018-03-04T13:27:27.248Z,7.13
2018-03-04T13:29:54.773Z,2.93
2018-03-04T13:32:22.177Z,6.77
2018-03-04T13:34:49.588Z,4.73
2018-03-04T13:37:17.052Z,1.20
2018-03-04T13:39:44.619Z,2.97
2018-03-04T13:42:12.184Z,1.87
2018-03-04T13:44:39.580Z,2.30
2018-03-04T13:47:07.047Z,5.10
2018-03-04T13:49:34.418Z,3.53
2018-03-04T13:52:01.793Z,9.13
2018-03-04T13:54:29.206Z,5.83
2018-03-04T13:56:56.688Z,4.03
2018-03-04T13:59:24.082Z,8.67
2018-03-04T14:01:51.549Z,4.07
2018-03-04T14:04:18.947Z,3.17
2018-03-04T14:06:46.382Z,2.43
2018-03-04T14:09:13.765Z,4.87
2018-03-04T14:11:41.698Z,4.40
2018-03-04T14:14:09.411Z,1.90
2018-03-04T14:16:36.911Z,2.77
2018-03-04T14:19:04.392Z,1.80
2018-03-04T14:21:31.824Z,2.80
2018-03-04T14:23:59.631Z,2.83
2018-03-04T14:26:27.041Z,6.50
2018-03-04T14:28:54.467Z,9.10
2018-03-04T14:31:21.875Z,2.43
2018-03-04T14:33:49.253Z,2.50
2018-03-04T14:36:16.662Z,2.50
2018-03-04T14:38:44.054Z,6.97
2018-03-04T14:41:11.388Z,4.10
2018-03-04T14:43:38.776Z,3.27
2018-03-04T14:46:06.242Z,2.40
2018-03-04T14:48:33.648Z,3.07
2018-03-04T14:51:00.985Z,2.70
2018-03-04T14:53:28.383Z,1.43
2018-03-04T14:55:55.701Z,4.27
2018-03-04T14:58:23.060Z,3.40
2018-03-04T15:00:50.387Z,3.90
2018-03-04T15:03:17.763Z,1.20
2018-03-04T15:05:45.104Z,1.43
2018-03-04T15:08:12.475Z,1.40
2018-03-04T15:10:39.908Z,3.90
2018-03-04T15:13:07.261Z,1.63
2018-03-04T15:15:34.616Z,2.33
2018-03-04T15:18:02.111Z,1.77
2018-03-04T15:20:29.511Z,1.90
2018-03-04T15:22:56.912Z,5.40
2018-03-04T15:25:24.291Z,2.13
2018-03-04T15:27:51.627Z,5.73
2018-03-04T15:30:18.983Z,4.70
2018-03-04T15:32:46.313Z,3.33
2018-03-04T15:35:13.704Z,4.43
2018-03-04T15:37:41.048Z,3.60
2018-03-04T15:40:08.404Z,2.83
2018-03-04T15:42:35.735Z,4.60
2018-03-04T15:45:03.106Z,7.10
2018-03-04T15:47:30.459Z,4.67
2018-03-04T15:49:57.816Z,2.70
2018-03-04T15:52:25.149Z,2.97
2018-03-04T15:54:52.512Z,6.60
2018-03-04T15:57:19.845Z,7.50
2018-03-04T15:59:47.213Z,8.20
2018-03-04T16:02:14.564Z,6.60
2018-03-04T16:04:41.899Z,7.40
2018-03-04T16:07:09.256Z,6.63
2018-03-04T16:09:36.599Z,5.20
2018-03-04T16:12:03.956Z,8.07
2018-03-04T16:14:31.285Z,4.93
2018-03-04T16:16:58.647Z,8.33
2018-03-04T16:19:25.983Z,4.90
2018-03-04T16:21:53.342Z,7.60
2018-03-04T16:24:20.670Z,6.50
2018-03-04T16:26:48.045Z,7.40
2018-03-04T16:29:15.375Z,5.37
2018-03-04T16:31:42.735Z,13.27
2018-03-04T16:34:10.067Z,13.50
2018-03-04T16:36:37.438Z,11.17
2018-03-04T16:39:04.778Z,39.47
2018-03-04T16:41:32.156Z,27.57
2018-03-04T16:43:59.499Z,72.07
2018-03-04T16:46:26.880Z,66.53
2018-03-04T16:48:54.246Z,48.33
2018-03-04T16:51:21.612Z,70.67
2018-03-04T16:53:48.953Z,98.03
2018-03-04T16:56:16.324Z,44.33
2018-03-04T16:58:43.684Z,30.60
2018-03-04T17:01:11.057Z,20.67
2018-03-04T17:03:38.430Z,26.17
2018-03-04T17:06:05.971Z,22.93
2018-03-04T17:08:33.340Z,29.43
2018-03-04T17:11:00.682Z,20.70
2018-03-04T17:13:28.056Z,18.53
2018-03-04T17:15:55.400Z,20.83
2018-03-04T17:18:22.774Z,23.97
2018-03-04T17:20:50.121Z,12.27
2018-03-04T17:23:17.490Z,15.43
2018-03-04T17:25:44.828Z,18.60
2018-03-04T17:28:12.204Z,18.33
2018-03-04T17:30:39.654Z,13.30
2018-03-04T17:33:07.032Z,14.10
2018-03-04T17:35:34.375Z,15.30
2018-03-04T17:38:01.754Z,18.33
2018-03-04T17:40:29.099Z,16.77
2018-03-04T17:42:56.619Z,18.50
2018-03-04T17:45:23.954Z,23.70
2018-03-04T17:47:51.327Z,19.47
2018-03-04T17:50:18.667Z,22.50
2018-03-04T17:52:46.036Z,21.47
2018-03-04T17:55:13.380Z,25.20
2018-03-04T17:57:40.785Z,30.80
2018-03-04T18:00:08.120Z,24.40
2018-03-04T18:02:35.463Z,22.30
2018-03-04T18:05:02.834Z,29.40
2018-03-04T18:07:30.176Z,25.37
2018-03-04T18:09:58.368Z,24.97
2018-03-04T18:12:25.839Z,28.50
2018-03-04T18:14:53.218Z,29.27
2018-03-04T18:17:20.561Z,28.23
2018-03-04T18:19:48.109Z,31.30
2018-03-04T18:22:15.448Z,30.93
2018-03-04T18:24:42.821Z,34.80
2018-03-04T18:27:10.192Z,34.70
2018-03-04T18:29:37.558Z,38.20
2018-03-04T18:32:04.905Z,30.80
2018-03-04T18:34:33.250Z,40.00
2018-03-04T18:37:00.671Z,36.47
2018-03-04T18:39:28.142Z,42.43
2018-03-04T18:41:55.487Z,39.77
2018-03-04T18:44:22.991Z,34.80
2018-03-04T18:46:50.329Z,37.93
2018-03-04T18:49:17.711Z,40.20
2018-03-04T18:51:45.060Z,37.80
2018-03-04T18:54:12.433Z,35.67
2018-03-04T18:56:39.804Z,40.47
2018-03-04T18:59:07.142Z,44.97
2018-03-04T19:01:34.583Z,44.33
2018-03-04T19:04:02.039Z,40.13
2018-03-04T19:06:29.516Z,43.67
2018-03-04T19:08:56.866Z,38.67
2018-03-04T19:11:24.244Z,47.10
2018-03-04T19:13:51.678Z,33.47
2018-03-04T19:16:19.047Z,37.67
2018-03-04T19:18:46.398Z,38.67
2018-03-04T19:21:13.786Z,40.30
2018-03-04T19:23:41.139Z,39.67
2018-03-04T19:26:08.515Z,39.63
2018-03-04T19:28:35.868Z,39.97
2018-03-04T19:31:03.292Z,45.03
2018-03-04T19:33:30.636Z,37.00
2018-03-04T19:35:57.993Z,42.63
2018-03-04T19:38:25.337Z,36.47
2018-03-04T19:40:52.725Z,39.27
2018-03-04T19:43:20.108Z,36.97
2018-03-04T19:45:47.469Z,37.00
2018-03-04T19:48:14.838Z,36.83
2018-03-04T19:50:42.174Z,48.43
2018-03-04T19:53:09.542Z,36.20
2018-03-04T19:55:36.886Z,43.40
2018-03-04T19:58:04.280Z,40.37
2018-03-04T20:00:31.637Z,41.25
2018-03-04T20:02:59.014Z,36.70
2018-03-04T20:05:26.396Z,39.17
2018-03-04T20:07:53.790Z,46.03
2018-03-04T20:10:21.133Z,39.63
2018-03-04T20:12:48.524Z,44.83
2018-03-04T20:15:15.869Z,39.90
2018-03-04T20:17:43.243Z,42.43
2018-03-04T20:20:10.584Z,41.60
2018-03-04T20:22:37.960Z,42.60
2018-03-04T20:25:05.318Z,45.37
2018-03-04T20:27:32.688Z,42.07
2018-03-04T20:30:00.032Z,43.90
2018-03-04T20:32:27.411Z,44.97
2018-03-04T20:34:54.762Z,44.73
2018-03-04T20:37:22.139Z,48.57
2018-03-04T20:39:49.480Z,42.27
2018-03-04T20:42:16.820Z,41.10
2018-03-04T20:44:44.279Z,38.10
2018-03-04T20:47:11.629Z,51.77
2018-03-04T20:49:39.099Z,50.90
2018-03-04T20:52:06.440Z,50.53
2018-03-04T20:54:33.809Z,44.30
2018-03-04T20:57:01.163Z,45.57
2018-03-04T20:59:28.567Z,51.50
2018-03-04T21:01:55.922Z,36.07
2018-03-04T21:04:23.286Z,37.93
2018-03-04T21:06:50.636Z,39.27
2018-03-04T21:09:18.021Z,41.40
2018-03-04T21:11:45.364Z,43.33
2018-03-04T21:14:12.744Z,43.77
2018-03-04T21:16:40.083Z,41.93
2018-03-04T21:19:07.439Z,35.67
2018-03-04T21:21:34.916Z,43.53
2018-03-04T21:24:02.266Z,38.67
2018-03-04T21:26:29.639Z,37.50
2018-03-04T21:28:56.984Z,41.17
2018-03-04T21:31:24.360Z,43.50
2018-03-04T21:33:51.703Z,38.17
2018-03-04T21:36:19.238Z,40.60
2018-03-04T21:38:46.617Z,41.60
2018-03-04T21:41:13.987Z,43.53
2018-03-04T21:43:41.329Z,55.43
2018-03-04T21:46:08.929Z,40.60
2018-03-04T21:48:36.294Z,44.53
2018-03-04T21:51:03.664Z,49.77
2018-03-04T21:53:31.001Z,39.33
2018-03-04T21:55:58.380Z,45.17
2018-03-04T21:58:25.734Z,36.07
2018-03-04T22:00:53.072Z,40.30
2018-03-04T22:03:20.446Z,47.20
2018-03-04T22:05:47.791Z,45.20
2018-03-04T22:08:15.159Z,66.13
2018-03-04T22:10:42.499Z,87.83
2018-03-04T22:13:09.869Z,48.90
2018-03-04T22:15:37.233Z,43.43
2018-03-04T22:18:04.613Z,50.50
2018-03-04T22:20:32.091Z,42.50
2018-03-04T22:22:59.471Z,41.60
2018-03-04T22:25:26.820Z,39.20
2018-03-04T22:27:54.218Z,42.20
2018-03-04T22:30:21.561Z,39.73
2018-03-04T22:32:48.944Z,37.50
2018-03-04T22:35:16.283Z,41.77
2018-03-04T22:37:43.648Z,39.00
2018-03-04T22:40:11.021Z,45.30
2018-03-04T22:42:38.375Z,40.17
2018-03-04T22:45:05.718Z,43.57
2018-03-04T22:47:33.088Z,41.33
2018-03-04T22:50:00.430Z,37.70
2018-03-04T22:52:27.826Z,42.87
2018-03-04T22:54:55.165Z,43.13
2018-03-04T22:57:22.541Z,45.80
2018-03-04T22:59:49.905Z,42.97
2018-03-04T23:02:17.256Z,50.37
2018-03-04T23:04:44.658Z,41.13
2018-03-04T23:07:11.999Z,40.87
2018-03-04T23:09:39.364Z,43.77
2018-03-04T23:12:06.704Z,39.57
2018-03-04T23:14:34.159Z,48.33
2018-03-04T23:17:01.494Z,40.27
2018-03-04T23:19:28.970Z,40.63
2018-03-04T23:21:56.328Z,33.87
2018-03-04T23:24:23.713Z,28.47
2018-03-04T23:26:51.240Z,20.83
2018-03-04T23:29:18.619Z,24.10
2018-03-04T23:31:45.963Z,24.73
2018-03-04T23:34:13.413Z,18.80
2018-03-04T23:36:40.752Z,17.63
2018-03-04T23:39:08.116Z,14.80
2018-03-04T23:41:35.459Z,14.57
2018-03-04T23:44:03.023Z,15.00
2018-03-04T23:46:30.363Z,14.97
2018-03-04T23:48:57.697Z,13.37
2018-03-04T23:51:25.096Z,17.23
2018-03-04T23:53:52.430Z,12.97
2018-03-04T23:56:19.832Z,13.63
2018-03-04T23:58:47.174Z,11.23
